sensor_id;sensor_type;location;lat;lon;timestamp;P1;durP1;ratioP1;P2;durP2;ratioP2
2211;SDS011;48849;48.758;9.158;2022-09-09T00:02:02;4.03;;;1.60;;
2211;SDS011;48849;48.758;9.158;2022-09-09T00:04:38;3.40;;;1.30;;
2211;SDS011;48849;48.758;9.158;2022-09-09T00:07:09;5.47;;;1.67;;
2211;SDS011;48849;48.758;9.158;2022-09-09T00:09:44;2.37;;;1.60;;
2211;SDS011;48849;48.758;9.158;2022-09-09T00:12:14;2.50;;;1.43;;
2211;SDS011;48849;48.758;9.158;2022-09-09T00:14:47;2.33;;;1.33;;
2211;SDS011;48849;48.758;9.158;2022-09-09T00:17:19;3.20;;;1.30;;
2211;SDS011;48849;48.758;9.158;2022-09-09T00:19:59;5.73;;;1.90;;
2211;SDS011;48849;48.758;9.158;2022-09-09T00:22:29;1.83;;;1.10;;
2211;SDS011;48849;48.758;9.158;2022-09-09T00:24:58;3.50;;;1.60;;
2211;SDS011;48849;48.758;9.158;2022-09-09T00:27:32;3.90;;;1.30;;
2211;SDS011;48849;48.758;9.158;2022-09-09T00:30:12;3.10;;;1.37;;
2211;SDS011;48849;48.758;9.158;2022-09-09T00:32:43;2.50;;;1.40;;
2211;SDS011;48849;48.758;9.158;2022-09-09T00:35:14;3.27;;;1.50;;
2211;SDS011;48849;48.758;9.158;2022-09-09T00:37:44;2.70;;;1.10;;
2211;SDS011;48849;48.758;9.158;2022-09-09T00:40:16;5.13;;;2.20;;
2211;SDS011;48849;48.758;9.158;2022-09-09T00:42:48;2.80;;;1.37;;
2211;SDS011;48849;48.758;9.158;2022-09-09T00:45:32;4.63;;;1.60;;
2211;SDS011;48849;48.758;9.158;2022-09-09T00:48:11;3.10;;;1.40;;
2211;SDS011;48849;48.758;9.158;2022-09-09T00:50:42;2.73;;;1.20;;
2211;SDS011;48849;48.758;9.158;2022-09-09T00:53:19;2.50;;;1.17;;
2211;SDS011;48849;48.758;9.158;2022-09-09T00:55:56;3.20;;;1.50;;
2211;SDS011;48849;48.758;9.158;2022-09-09T00:58:30;2.57;;;1.30;;
2211;SDS011;48849;48.758;9.158;2022-09-09T01:00:57;4.03;;;1.60;;
2211;SDS011;48849;48.758;9.158;2022-09-09T01:03:33;5.47;;;1.70;;
2211;SDS011;48849;48.758;9.158;2022-09-09T01:06:11;2.93;;;1.27;;
2211;SDS011;48849;48.758;9.158;2022-09-09T01:08:50;2.87;;;1.20;;
2211;SDS011;48849;48.758;9.158;2022-09-09T01:11:33;6.93;;;1.70;;
2211;SDS011;48849;48.758;9.158;2022-09-09T01:14:11;1.53;;;0.87;;
2211;SDS011;48849;48.758;9.158;2022-09-09T01:16:45;3.60;;;1.23;;
2211;SDS011;48849;48.758;9.158;2022-09-09T01:19:15;2.93;;;1.43;;
2211;SDS011;48849;48.758;9.158;2022-09-09T01:21:53;3.50;;;1.30;;
2211;SDS011;48849;48.758;9.158;2022-09-09T01:24:27;2.80;;;1.33;;
2211;SDS011;48849;48.758;9.158;2022-09-09T01:27:02;4.40;;;1.70;;
2211;SDS011;48849;48.758;9.158;2022-09-09T01:29:31;3.90;;;1.40;;
2211;SDS011;48849;48.758;9.158;2022-09-09T01:31:59;1.53;;;1.00;;
2211;SDS011;48849;48.758;9.158;2022-09-09T01:34:29;2.80;;;1.37;;
2211;SDS011;48849;48.758;9.158;2022-09-09T01:37:02;2.20;;;1.50;;
2211;SDS011;48849;48.758;9.158;2022-09-09T01:39:30;1.67;;;1.17;;
2211;SDS011;48849;48.758;9.158;2022-09-09T01:41:59;2.77;;;1.50;;
2211;SDS011;48849;48.758;9.158;2022-09-09T01:44:27;2.03;;;1.17;;
2211;SDS011;48849;48.758;9.158;2022-09-09T01:46:55;1.97;;;1.20;;
2211;SDS011;48849;48.758;9.158;2022-09-09T01:49:22;2.63;;;1.30;;
2211;SDS011;48849;48.758;9.158;2022-09-09T01:51:50;2.50;;;1.17;;
2211;SDS011;48849;48.758;9.158;2022-09-09T01:54:19;1.80;;;1.07;;
2211;SDS011;48849;48.758;9.158;2022-09-09T01:56:47;2.43;;;1.30;;
2211;SDS011;48849;48.758;9.158;2022-09-09T01:59:48;2.10;;;1.17;;
2211;SDS011;48849;48.758;9.158;2022-09-09T02:02:26;1.90;;;1.30;;
2211;SDS011;48849;48.758;9.158;2022-09-09T02:05:01;3.13;;;1.30;;
2211;SDS011;48849;48.758;9.158;2022-09-09T02:07:41;4.30;;;1.87;;
2211;SDS011;48849;48.758;9.158;2022-09-09T02:10:15;5.03;;;1.60;;
2211;SDS011;48849;48.758;9.158;2022-09-09T02:12:45;1.73;;;1.20;;
2211;SDS011;48849;48.758;9.158;2022-09-09T02:15:21;5.00;;;1.53;;
2211;SDS011;48849;48.758;9.158;2022-09-09T02:18:02;3.60;;;1.17;;
2211;SDS011;48849;48.758;9.158;2022-09-09T02:20:33;4.43;;;1.60;;
2211;SDS011;48849;48.758;9.158;2022-09-09T02:23:03;2.27;;;1.23;;
2211;SDS011;48849;48.758;9.158;2022-09-09T02:25:32;3.20;;;1.10;;
2211;SDS011;48849;48.758;9.158;2022-09-09T02:28:02;3.43;;;1.30;;
2211;SDS011;48849;48.758;9.158;2022-09-09T02:30:32;1.67;;;1.10;;
2211;SDS011;48849;48.758;9.158;2022-09-09T02:33:02;3.50;;;1.40;;
2211;SDS011;48849;48.758;9.158;2022-09-09T02:35:31;4.10;;;1.50;;
2211;SDS011;48849;48.758;9.158;2022-09-09T02:38:04;5.50;;;1.70;;
2211;SDS011;48849;48.758;9.158;2022-09-09T02:40:33;2.87;;;1.23;;
2211;SDS011;48849;48.758;9.158;2022-09-09T02:43:00;3.13;;;1.43;;
2211;SDS011;48849;48.758;9.158;2022-09-09T02:45:30;2.33;;;1.40;;
2211;SDS011;48849;48.758;9.158;2022-09-09T02:48:03;4.30;;;1.20;;
2211;SDS011;48849;48.758;9.158;2022-09-09T02:50:37;2.93;;;1.50;;
2211;SDS011;48849;48.758;9.158;2022-09-09T02:53:16;3.60;;;1.13;;
2211;SDS011;48849;48.758;9.158;2022-09-09T02:55:46;5.00;;;1.40;;
2211;SDS011;48849;48.758;9.158;2022-09-09T02:58:15;3.77;;;1.20;;
2211;SDS011;48849;48.758;9.158;2022-09-09T03:00:45;2.07;;;1.17;;
2211;SDS011;48849;48.758;9.158;2022-09-09T03:03:12;2.63;;;1.43;;
2211;SDS011;48849;48.758;9.158;2022-09-09T03:05:41;2.53;;;1.03;;
2211;SDS011;48849;48.758;9.158;2022-09-09T03:08:08;2.97;;;2.10;;
2211;SDS011;48849;48.758;9.158;2022-09-09T03:10:35;1.97;;;1.20;;
2211;SDS011;48849;48.758;9.158;2022-09-09T03:13:02;3.33;;;1.30;;
2211;SDS011;48849;48.758;9.158;2022-09-09T03:15:30;4.90;;;1.63;;
2211;SDS011;48849;48.758;9.158;2022-09-09T03:17:58;3.00;;;1.20;;
2211;SDS011;48849;48.758;9.158;2022-09-09T03:20:26;2.57;;;1.43;;
2211;SDS011;48849;48.758;9.158;2022-09-09T03:22:54;1.90;;;0.97;;
2211;SDS011;48849;48.758;9.158;2022-09-09T03:25:21;4.13;;;1.47;;
2211;SDS011;48849;48.758;9.158;2022-09-09T03:27:49;2.40;;;1.30;;
2211;SDS011;48849;48.758;9.158;2022-09-09T03:30:18;2.50;;;1.23;;
2211;SDS011;48849;48.758;9.158;2022-09-09T03:32:44;1.67;;;1.17;;
2211;SDS011;48849;48.758;9.158;2022-09-09T03:35:12;1.93;;;1.50;;
2211;SDS011;48849;48.758;9.158;2022-09-09T03:37:40;2.23;;;1.30;;
2211;SDS011;48849;48.758;9.158;2022-09-09T03:40:07;2.57;;;1.47;;
2211;SDS011;48849;48.758;9.158;2022-09-09T03:42:35;4.40;;;1.27;;
2211;SDS011;48849;48.758;9.158;2022-09-09T03:45:03;1.73;;;0.90;;
2211;SDS011;48849;48.758;9.158;2022-09-09T03:47:30;1.90;;;0.90;;
2211;SDS011;48849;48.758;9.158;2022-09-09T03:49:57;3.03;;;1.30;;
2211;SDS011;48849;48.758;9.158;2022-09-09T03:52:25;4.53;;;1.40;;
2211;SDS011;48849;48.758;9.158;2022-09-09T03:54:52;3.20;;;1.30;;
2211;SDS011;48849;48.758;9.158;2022-09-09T03:57:19;1.83;;;1.10;;
2211;SDS011;48849;48.758;9.158;2022-09-09T03:59:46;2.37;;;1.10;;
2211;SDS011;48849;48.758;9.158;2022-09-09T04:02:13;2.20;;;1.20;;
2211;SDS011;48849;48.758;9.158;2022-09-09T04:04:40;2.20;;;1.00;;
2211;SDS011;48849;48.758;9.158;2022-09-09T04:07:07;3.13;;;1.10;;
2211;SDS011;48849;48.758;9.158;2022-09-09T04:09:35;4.10;;;1.20;;
2211;SDS011;48849;48.758;9.158;2022-09-09T04:12:02;1.20;;;1.00;;
2211;SDS011;48849;48.758;9.158;2022-09-09T04:14:29;3.93;;;1.10;;
2211;SDS011;48849;48.758;9.158;2022-09-09T04:16:56;3.33;;;1.10;;
2211;SDS011;48849;48.758;9.158;2022-09-09T04:19:24;2.20;;;1.40;;
2211;SDS011;48849;48.758;9.158;2022-09-09T04:21:51;1.87;;;1.23;;
2211;SDS011;48849;48.758;9.158;2022-09-09T04:24:18;2.90;;;1.40;;
2211;SDS011;48849;48.758;9.158;2022-09-09T04:26:46;4.53;;;1.17;;
2211;SDS011;48849;48.758;9.158;2022-09-09T04:29:13;4.30;;;1.13;;
2211;SDS011;48849;48.758;9.158;2022-09-09T04:31:39;3.20;;;1.17;;
2211;SDS011;48849;48.758;9.158;2022-09-09T04:34:07;4.63;;;1.33;;
2211;SDS011;48849;48.758;9.158;2022-09-09T04:36:33;2.73;;;1.40;;
2211;SDS011;48849;48.758;9.158;2022-09-09T04:39:00;4.50;;;1.20;;
2211;SDS011;48849;48.758;9.158;2022-09-09T04:41:27;2.80;;;1.00;;
2211;SDS011;48849;48.758;9.158;2022-09-09T04:43:57;7.33;;;1.60;;
2211;SDS011;48849;48.758;9.158;2022-09-09T04:46:24;3.63;;;1.30;;
2211;SDS011;48849;48.758;9.158;2022-09-09T04:48:51;4.13;;;1.23;;
2211;SDS011;48849;48.758;9.158;2022-09-09T04:51:18;3.07;;;1.20;;
2211;SDS011;48849;48.758;9.158;2022-09-09T04:53:45;2.37;;;1.13;;
2211;SDS011;48849;48.758;9.158;2022-09-09T04:56:14;2.60;;;1.40;;
2211;SDS011;48849;48.758;9.158;2022-09-09T04:58:42;2.87;;;1.40;;
2211;SDS011;48849;48.758;9.158;2022-09-09T05:01:11;3.07;;;1.50;;
2211;SDS011;48849;48.758;9.158;2022-09-09T05:03:38;2.73;;;1.30;;
2211;SDS011;48849;48.758;9.158;2022-09-09T05:06:06;3.10;;;1.50;;
2211;SDS011;48849;48.758;9.158;2022-09-09T05:08:35;1.80;;;1.10;;
2211;SDS011;48849;48.758;9.158;2022-09-09T05:11:02;3.33;;;1.60;;
2211;SDS011;48849;48.758;9.158;2022-09-09T05:13:29;2.10;;;1.20;;
2211;SDS011;48849;48.758;9.158;2022-09-09T05:15:57;3.30;;;1.53;;
2211;SDS011;48849;48.758;9.158;2022-09-09T05:18:25;4.75;;;1.75;;
2211;SDS011;48849;48.758;9.158;2022-09-09T05:20:52;2.33;;;1.03;;
2211;SDS011;48849;48.758;9.158;2022-09-09T05:23:18;2.30;;;1.30;;
2211;SDS011;48849;48.758;9.158;2022-09-09T05:25:53;1.80;;;1.10;;
2211;SDS011;48849;48.758;9.158;2022-09-09T05:28:21;5.27;;;1.53;;
2211;SDS011;48849;48.758;9.158;2022-09-09T05:30:54;3.77;;;1.60;;
2211;SDS011;48849;48.758;9.158;2022-09-09T05:33:22;2.93;;;1.00;;
2211;SDS011;48849;48.758;9.158;2022-09-09T05:35:55;2.20;;;1.40;;
2211;SDS011;48849;48.758;9.158;2022-09-09T05:38:23;2.27;;;1.30;;
2211;SDS011;48849;48.758;9.158;2022-09-09T05:40:50;3.93;;;1.63;;
2211;SDS011;48849;48.758;9.158;2022-09-09T05:43:17;3.23;;;1.53;;
2211;SDS011;48849;48.758;9.158;2022-09-09T05:45:44;2.00;;;1.17;;
2211;SDS011;48849;48.758;9.158;2022-09-09T05:48:11;1.90;;;1.37;;
2211;SDS011;48849;48.758;9.158;2022-09-09T05:50:38;2.50;;;1.23;;
2211;SDS011;48849;48.758;9.158;2022-09-09T05:53:06;5.63;;;1.47;;
2211;SDS011;48849;48.758;9.158;2022-09-09T05:55:33;5.40;;;2.33;;
2211;SDS011;48849;48.758;9.158;2022-09-09T05:57:59;3.83;;;1.30;;
2211;SDS011;48849;48.758;9.158;2022-09-09T06:00:26;3.13;;;1.13;;
2211;SDS011;48849;48.758;9.158;2022-09-09T06:02:53;5.20;;;2.03;;
2211;SDS011;48849;48.758;9.158;2022-09-09T06:05:19;4.50;;;1.40;;
2211;SDS011;48849;48.758;9.158;2022-09-09T06:07:47;4.73;;;1.90;;
2211;SDS011;48849;48.758;9.158;2022-09-09T06:10:19;3.20;;;1.40;;
2211;SDS011;48849;48.758;9.158;2022-09-09T06:12:46;2.57;;;1.50;;
2211;SDS011;48849;48.758;9.158;2022-09-09T06:15:12;5.57;;;1.60;;
2211;SDS011;48849;48.758;9.158;2022-09-09T06:17:39;4.53;;;1.73;;
2211;SDS011;48849;48.758;9.158;2022-09-09T06:20:07;2.73;;;1.87;;
2211;SDS011;48849;48.758;9.158;2022-09-09T06:22:34;4.53;;;1.73;;
2211;SDS011;48849;48.758;9.158;2022-09-09T06:25:01;3.40;;;1.50;;
2211;SDS011;48849;48.758;9.158;2022-09-09T06:27:29;4.10;;;1.30;;
2211;SDS011;48849;48.758;9.158;2022-09-09T06:29:56;3.03;;;1.60;;
2211;SDS011;48849;48.758;9.158;2022-09-09T06:32:23;5.77;;;1.70;;
2211;SDS011;48849;48.758;9.158;2022-09-09T06:34:50;2.07;;;1.10;;
2211;SDS011;48849;48.758;9.158;2022-09-09T06:37:16;2.87;;;1.70;;
2211;SDS011;48849;48.758;9.158;2022-09-09T06:39:43;3.00;;;1.50;;
2211;SDS011;48849;48.758;9.158;2022-09-09T06:42:10;3.40;;;1.67;;
2211;SDS011;48849;48.758;9.158;2022-09-09T06:44:38;2.63;;;1.80;;
2211;SDS011;48849;48.758;9.158;2022-09-09T06:47:05;4.47;;;1.80;;
2211;SDS011;48849;48.758;9.158;2022-09-09T06:49:32;2.90;;;1.80;;
2211;SDS011;48849;48.758;9.158;2022-09-09T06:52:00;2.40;;;1.60;;
2211;SDS011;48849;48.758;9.158;2022-09-09T06:54:26;2.00;;;1.60;;
2211;SDS011;48849;48.758;9.158;2022-09-09T06:56:53;4.60;;;2.60;;
2211;SDS011;48849;48.758;9.158;2022-09-09T06:59:20;5.43;;;2.90;;
2211;SDS011;48849;48.758;9.158;2022-09-09T07:01:48;5.97;;;5.20;;
2211;SDS011;48849;48.758;9.158;2022-09-09T07:04:16;5.00;;;3.07;;
2211;SDS011;48849;48.758;9.158;2022-09-09T07:06:44;3.90;;;3.00;;
2211;SDS011;48849;48.758;9.158;2022-09-09T07:09:12;5.27;;;3.00;;
2211;SDS011;48849;48.758;9.158;2022-09-09T07:11:40;4.70;;;2.03;;
2211;SDS011;48849;48.758;9.158;2022-09-09T07:14:08;4.20;;;1.67;;
2211;SDS011;48849;48.758;9.158;2022-09-09T07:16:37;4.60;;;2.00;;
2211;SDS011;48849;48.758;9.158;2022-09-09T07:19:06;2.50;;;1.53;;
2211;SDS011;48849;48.758;9.158;2022-09-09T07:21:32;5.37;;;1.80;;
2211;SDS011;48849;48.758;9.158;2022-09-09T07:24:00;3.13;;;1.67;;
2211;SDS011;48849;48.758;9.158;2022-09-09T07:26:28;3.10;;;1.40;;
2211;SDS011;48849;48.758;9.158;2022-09-09T07:28:56;4.60;;;2.20;;
2211;SDS011;48849;48.758;9.158;2022-09-09T07:31:24;3.00;;;1.80;;
2211;SDS011;48849;48.758;9.158;2022-09-09T07:33:52;8.50;;;1.67;;
2211;SDS011;48849;48.758;9.158;2022-09-09T07:36:21;4.77;;;1.93;;
2211;SDS011;48849;48.758;9.158;2022-09-09T07:38:50;3.47;;;1.40;;
2211;SDS011;48849;48.758;9.158;2022-09-09T07:41:19;2.13;;;1.30;;
2211;SDS011;48849;48.758;9.158;2022-09-09T07:43:47;3.10;;;1.67;;
2211;SDS011;48849;48.758;9.158;2022-09-09T07:46:16;3.50;;;1.60;;
2211;SDS011;48849;48.758;9.158;2022-09-09T07:48:45;4.10;;;2.70;;
2211;SDS011;48849;48.758;9.158;2022-09-09T07:51:14;4.23;;;2.77;;
2211;SDS011;48849;48.758;9.158;2022-09-09T07:53:44;5.90;;;2.63;;
2211;SDS011;48849;48.758;9.158;2022-09-09T07:56:12;3.50;;;1.90;;
2211;SDS011;48849;48.758;9.158;2022-09-09T07:58:44;4.32;;;1.58;;
2211;SDS011;48849;48.758;9.158;2022-09-09T08:01:13;2.63;;;1.23;;
2211;SDS011;48849;48.758;9.158;2022-09-09T08:03:40;2.23;;;1.10;;
2211;SDS011;48849;48.758;9.158;2022-09-09T08:06:08;5.70;;;1.40;;
2211;SDS011;48849;48.758;9.158;2022-09-09T08:08:35;2.40;;;1.20;;
2211;SDS011;48849;48.758;9.158;2022-09-09T08:11:06;4.70;;;1.63;;
2211;SDS011;48849;48.758;9.158;2022-09-09T08:13:36;2.93;;;1.17;;
2211;SDS011;48849;48.758;9.158;2022-09-09T08:16:05;2.67;;;1.50;;
2211;SDS011;48849;48.758;9.158;2022-09-09T08:18:34;6.57;;;1.57;;
2211;SDS011;48849;48.758;9.158;2022-09-09T08:21:07;2.17;;;1.17;;
2211;SDS011;48849;48.758;9.158;2022-09-09T08:23:36;6.03;;;1.40;;
2211;SDS011;48849;48.758;9.158;2022-09-09T08:26:06;7.67;;;1.47;;
2211;SDS011;48849;48.758;9.158;2022-09-09T08:28:35;4.63;;;1.30;;
2211;SDS011;48849;48.758;9.158;2022-09-09T08:31:12;2.60;;;1.07;;
2211;SDS011;48849;48.758;9.158;2022-09-09T08:33:41;2.80;;;1.50;;
2211;SDS011;48849;48.758;9.158;2022-09-09T08:36:11;2.33;;;1.00;;
2211;SDS011;48849;48.758;9.158;2022-09-09T08:38:40;3.03;;;1.50;;
2211;SDS011;48849;48.758;9.158;2022-09-09T08:41:15;4.00;;;1.20;;
2211;SDS011;48849;48.758;9.158;2022-09-09T08:44:00;4.17;;;1.87;;
2211;SDS011;48849;48.758;9.158;2022-09-09T08:46:31;2.60;;;1.33;;
2211;SDS011;48849;48.758;9.158;2022-09-09T08:49:12;2.80;;;1.20;;
2211;SDS011;48849;48.758;9.158;2022-09-09T08:51:48;3.67;;;1.30;;
2211;SDS011;48849;48.758;9.158;2022-09-09T08:54:15;2.63;;;1.00;;
2211;SDS011;48849;48.758;9.158;2022-09-09T08:56:45;2.87;;;1.20;;
2211;SDS011;48849;48.758;9.158;2022-09-09T08:59:12;4.13;;;1.30;;
2211;SDS011;48849;48.758;9.158;2022-09-09T09:01:50;2.60;;;1.20;;
2211;SDS011;48849;48.758;9.158;2022-09-09T09:04:37;2.27;;;1.20;;
2211;SDS011;48849;48.758;9.158;2022-09-09T09:07:14;3.93;;;1.10;;
2211;SDS011;48849;48.758;9.158;2022-09-09T09:09:53;3.10;;;1.17;;
2211;SDS011;48849;48.758;9.158;2022-09-09T09:12:30;4.60;;;1.40;;
2211;SDS011;48849;48.758;9.158;2022-09-09T09:15:01;2.67;;;1.30;;
2211;SDS011;48849;48.758;9.158;2022-09-09T09:17:35;2.27;;;1.10;;
2211;SDS011;48849;48.758;9.158;2022-09-09T09:20:05;1.80;;;1.10;;
2211;SDS011;48849;48.758;9.158;2022-09-09T09:22:39;2.23;;;1.10;;
2211;SDS011;48849;48.758;9.158;2022-09-09T09:25:11;4.10;;;1.47;;
2211;SDS011;48849;48.758;9.158;2022-09-09T09:27:46;3.20;;;1.37;;
2211;SDS011;48849;48.758;9.158;2022-09-09T09:30:19;6.57;;;2.07;;
2211;SDS011;48849;48.758;9.158;2022-09-09T09:32:50;4.00;;;1.40;;
2211;SDS011;48849;48.758;9.158;2022-09-09T09:35:19;4.00;;;1.37;;
2211;SDS011;48849;48.758;9.158;2022-09-09T09:37:46;3.40;;;1.00;;
2211;SDS011;48849;48.758;9.158;2022-09-09T09:40:14;2.53;;;1.20;;
2211;SDS011;48849;48.758;9.158;2022-09-09T09:42:49;2.30;;;0.90;;
2211;SDS011;48849;48.758;9.158;2022-09-09T09:45:22;2.23;;;0.93;;
2211;SDS011;48849;48.758;9.158;2022-09-09T09:48:00;1.80;;;1.00;;
2211;SDS011;48849;48.758;9.158;2022-09-09T09:50:28;2.67;;;1.50;;
2211;SDS011;48849;48.758;9.158;2022-09-09T09:52:56;2.83;;;1.73;;
2211;SDS011;48849;48.758;9.158;2022-09-09T09:55:25;2.73;;;2.13;;
2211;SDS011;48849;48.758;9.158;2022-09-09T09:58:01;3.23;;;2.10;;
2211;SDS011;48849;48.758;9.158;2022-09-09T10:00:29;3.50;;;1.20;;
2211;SDS011;48849;48.758;9.158;2022-09-09T10:02:56;3.20;;;0.90;;
2211;SDS011;48849;48.758;9.158;2022-09-09T10:05:23;4.23;;;1.40;;
2211;SDS011;48849;48.758;9.158;2022-09-09T10:08:00;3.30;;;1.10;;
2211;SDS011;48849;48.758;9.158;2022-09-09T10:10:34;1.80;;;1.17;;
2211;SDS011;48849;48.758;9.158;2022-09-09T10:13:14;2.97;;;1.23;;
2211;SDS011;48849;48.758;9.158;2022-09-09T10:15:46;2.93;;;1.27;;
2211;SDS011;48849;48.758;9.158;2022-09-09T10:18:39;2.23;;;1.03;;
2211;SDS011;48849;48.758;9.158;2022-09-09T10:21:20;1.60;;;1.20;;
2211;SDS011;48849;48.758;9.158;2022-09-09T10:24:02;3.80;;;1.27;;
2211;SDS011;48849;48.758;9.158;2022-09-09T10:26:40;2.90;;;1.33;;
2211;SDS011;48849;48.758;9.158;2022-09-09T10:29:20;2.40;;;1.13;;
2211;SDS011;48849;48.758;9.158;2022-09-09T10:32:12;3.93;;;1.30;;
2211;SDS011;48849;48.758;9.158;2022-09-09T10:34:57;2.33;;;1.00;;
2211;SDS011;48849;48.758;9.158;2022-09-09T10:37:34;4.57;;;1.47;;
2211;SDS011;48849;48.758;9.158;2022-09-09T10:40:20;9.80;;;1.40;;
2211;SDS011;48849;48.758;9.158;2022-09-09T10:42:55;2.60;;;1.47;;
2211;SDS011;48849;48.758;9.158;2022-09-09T10:45:34;2.90;;;1.40;;
2211;SDS011;48849;48.758;9.158;2022-09-09T10:48:11;3.67;;;1.70;;
2211;SDS011;48849;48.758;9.158;2022-09-09T10:50:55;3.10;;;1.70;;
2211;SDS011;48849;48.758;9.158;2022-09-09T10:53:33;1.57;;;1.07;;
2211;SDS011;48849;48.758;9.158;2022-09-09T10:56:05;2.20;;;1.37;;
2211;SDS011;48849;48.758;9.158;2022-09-09T10:58:36;4.77;;;1.20;;
2211;SDS011;48849;48.758;9.158;2022-09-09T11:01:11;5.63;;;1.47;;
2211;SDS011;48849;48.758;9.158;2022-09-09T11:03:43;5.43;;;1.87;;
2211;SDS011;48849;48.758;9.158;2022-09-09T11:06:16;3.90;;;1.20;;
2211;SDS011;48849;48.758;9.158;2022-09-09T11:08:46;3.50;;;1.70;;
2211;SDS011;48849;48.758;9.158;2022-09-09T11:11:15;4.13;;;1.40;;
2211;SDS011;48849;48.758;9.158;2022-09-09T11:13:47;5.00;;;2.77;;
2211;SDS011;48849;48.758;9.158;2022-09-09T11:16:24;4.57;;;1.50;;
2211;SDS011;48849;48.758;9.158;2022-09-09T11:18:56;2.77;;;1.40;;
2211;SDS011;48849;48.758;9.158;2022-09-09T11:21:27;2.73;;;1.30;;
2211;SDS011;48849;48.758;9.158;2022-09-09T11:23:58;2.20;;;1.00;;
2211;SDS011;48849;48.758;9.158;2022-09-09T11:26:29;4.97;;;1.07;;
2211;SDS011;48849;48.758;9.158;2022-09-09T11:29:02;2.10;;;0.90;;
2211;SDS011;48849;48.758;9.158;2022-09-09T11:31:46;2.90;;;0.90;;
2211;SDS011;48849;48.758;9.158;2022-09-09T11:34:27;2.63;;;0.93;;
2211;SDS011;48849;48.758;9.158;2022-09-09T11:40:17;1.27;;;0.70;;
2211;SDS011;48849;48.758;9.158;2022-09-09T11:42:48;3.50;;;1.07;;
2211;SDS011;48849;48.758;9.158;2022-09-09T11:45:26;4.20;;;0.80;;
2211;SDS011;48849;48.758;9.158;2022-09-09T11:47:56;1.40;;;0.90;;
2211;SDS011;48849;48.758;9.158;2022-09-09T11:50:27;1.73;;;0.80;;
2211;SDS011;48849;48.758;9.158;2022-09-09T11:53:14;4.73;;;1.53;;
2211;SDS011;48849;48.758;9.158;2022-09-09T11:55:47;1.83;;;1.00;;
2211;SDS011;48849;48.758;9.158;2022-09-09T11:58:25;2.50;;;0.97;;
2211;SDS011;48849;48.758;9.158;2022-09-09T12:00:54;1.10;;;0.63;;
2211;SDS011;48849;48.758;9.158;2022-09-09T12:03:38;2.60;;;0.63;;
2211;SDS011;48849;48.758;9.158;2022-09-09T12:06:09;1.00;;;0.50;;
2211;SDS011;48849;48.758;9.158;2022-09-09T12:08:41;2.50;;;0.87;;
2211;SDS011;48849;48.758;9.158;2022-09-09T12:11:10;1.37;;;0.70;;
2211;SDS011;48849;48.758;9.158;2022-09-09T12:13:37;2.20;;;0.83;;
2211;SDS011;48849;48.758;9.158;2022-09-09T12:16:26;1.60;;;0.60;;
2211;SDS011;48849;48.758;9.158;2022-09-09T12:19:03;0.83;;;0.50;;
2211;SDS011;48849;48.758;9.158;2022-09-09T12:21:33;2.60;;;0.70;;
2211;SDS011;48849;48.758;9.158;2022-09-09T12:24:07;2.20;;;0.90;;
2211;SDS011;48849;48.758;9.158;2022-09-09T12:26:36;3.10;;;0.80;;
2211;SDS011;48849;48.758;9.158;2022-09-09T12:29:12;2.43;;;0.80;;
2211;SDS011;48849;48.758;9.158;2022-09-09T12:31:49;1.20;;;0.73;;
2211;SDS011;48849;48.758;9.158;2022-09-09T12:34:25;1.73;;;0.50;;
2211;SDS011;48849;48.758;9.158;2022-09-09T12:37:02;1.70;;;0.67;;
2211;SDS011;48849;48.758;9.158;2022-09-09T12:39:33;1.50;;;0.70;;
2211;SDS011;48849;48.758;9.158;2022-09-09T12:42:03;2.70;;;1.00;;
2211;SDS011;48849;48.758;9.158;2022-09-09T12:44:30;1.77;;;0.83;;
2211;SDS011;48849;48.758;9.158;2022-09-09T12:46:58;1.73;;;0.80;;
2211;SDS011;48849;48.758;9.158;2022-09-09T12:49:31;1.83;;;1.00;;
2211;SDS011;48849;48.758;9.158;2022-09-09T12:52:02;1.53;;;0.60;;
2211;SDS011;48849;48.758;9.158;2022-09-09T12:54:31;2.87;;;0.90;;
2211;SDS011;48849;48.758;9.158;2022-09-09T12:56:58;1.93;;;0.70;;
2211;SDS011;48849;48.758;9.158;2022-09-09T12:59:26;3.27;;;0.90;;
2211;SDS011;48849;48.758;9.158;2022-09-09T13:02:01;1.43;;;0.80;;
2211;SDS011;48849;48.758;9.158;2022-09-09T13:04:28;3.53;;;1.10;;
2211;SDS011;48849;48.758;9.158;2022-09-09T13:07:05;3.47;;;1.40;;
2211;SDS011;48849;48.758;9.158;2022-09-09T13:09:35;3.63;;;1.50;;
2211;SDS011;48849;48.758;9.158;2022-09-09T13:12:02;2.40;;;0.90;;
2211;SDS011;48849;48.758;9.158;2022-09-09T13:14:32;1.30;;;1.00;;
2211;SDS011;48849;48.758;9.158;2022-09-09T13:17:03;2.40;;;0.70;;
2211;SDS011;48849;48.758;9.158;2022-09-09T13:19:34;2.20;;;0.60;;
2211;SDS011;48849;48.758;9.158;2022-09-09T13:22:10;3.07;;;1.00;;
2211;SDS011;48849;48.758;9.158;2022-09-09T13:24:38;2.10;;;1.00;;
2211;SDS011;48849;48.758;9.158;2022-09-09T13:27:17;3.77;;;1.20;;
2211;SDS011;48849;48.758;9.158;2022-09-09T13:29:52;3.87;;;1.50;;
2211;SDS011;48849;48.758;9.158;2022-09-09T13:32:21;3.13;;;1.23;;
2211;SDS011;48849;48.758;9.158;2022-09-09T13:34:54;2.07;;;1.00;;
2211;SDS011;48849;48.758;9.158;2022-09-09T13:37:23;3.00;;;1.20;;
2211;SDS011;48849;48.758;9.158;2022-09-09T13:39:55;3.23;;;0.93;;
2211;SDS011;48849;48.758;9.158;2022-09-09T13:42:24;1.60;;;0.80;;
2211;SDS011;48849;48.758;9.158;2022-09-09T13:44:52;2.73;;;0.90;;
2211;SDS011;48849;48.758;9.158;2022-09-09T13:47:20;3.90;;;0.80;;
2211;SDS011;48849;48.758;9.158;2022-09-09T13:49:54;1.30;;;0.90;;
2211;SDS011;48849;48.758;9.158;2022-09-09T13:52:20;1.87;;;0.83;;
2211;SDS011;48849;48.758;9.158;2022-09-09T13:54:47;5.27;;;1.07;;
2211;SDS011;48849;48.758;9.158;2022-09-09T13:57:16;2.57;;;0.67;;
2211;SDS011;48849;48.758;9.158;2022-09-09T13:59:45;1.70;;;0.50;;
2211;SDS011;48849;48.758;9.158;2022-09-09T14:02:12;1.37;;;0.80;;
2211;SDS011;48849;48.758;9.158;2022-09-09T14:04:39;2.53;;;0.93;;
2211;SDS011;48849;48.758;9.158;2022-09-09T14:07:09;1.30;;;0.70;;
2211;SDS011;48849;48.758;9.158;2022-09-09T14:09:38;1.50;;;0.60;;
2211;SDS011;48849;48.758;9.158;2022-09-09T14:12:05;1.50;;;0.60;;
2211;SDS011;48849;48.758;9.158;2022-09-09T14:14:35;1.70;;;0.70;;
2211;SDS011;48849;48.758;9.158;2022-09-09T14:17:02;6.03;;;1.27;;
2211;SDS011;48849;48.758;9.158;2022-09-09T14:19:28;1.30;;;0.80;;
2211;SDS011;48849;48.758;9.158;2022-09-09T14:21:56;2.10;;;0.90;;
2211;SDS011;48849;48.758;9.158;2022-09-09T14:24:24;2.30;;;0.70;;
2211;SDS011;48849;48.758;9.158;2022-09-09T14:26:51;3.73;;;0.73;;
2211;SDS011;48849;48.758;9.158;2022-09-09T14:29:18;2.70;;;0.67;;
2211;SDS011;48849;48.758;9.158;2022-09-09T14:31:45;1.73;;;0.70;;
2211;SDS011;48849;48.758;9.158;2022-09-09T14:34:12;2.83;;;0.90;;
2211;SDS011;48849;48.758;9.158;2022-09-09T14:36:39;2.90;;;0.90;;
2211;SDS011;48849;48.758;9.158;2022-09-09T14:39:06;2.77;;;0.70;;
2211;SDS011;48849;48.758;9.158;2022-09-09T14:41:35;3.00;;;0.63;;
2211;SDS011;48849;48.758;9.158;2022-09-09T14:44:02;2.07;;;0.87;;
2211;SDS011;48849;48.758;9.158;2022-09-09T14:46:28;1.40;;;0.60;;
2211;SDS011;48849;48.758;9.158;2022-09-09T14:48:56;2.97;;;0.60;;
2211;SDS011;48849;48.758;9.158;2022-09-09T14:51:24;2.07;;;0.60;;
2211;SDS011;48849;48.758;9.158;2022-09-09T14:53:52;1.20;;;0.50;;
2211;SDS011;48849;48.758;9.158;2022-09-09T14:56:20;1.33;;;0.50;;
2211;SDS011;48849;48.758;9.158;2022-09-09T14:58:52;4.33;;;1.70;;
2211;SDS011;48849;48.758;9.158;2022-09-09T15:01:20;4.30;;;1.80;;
2211;SDS011;48849;48.758;9.158;2022-09-09T15:03:50;2.13;;;1.40;;
2211;SDS011;48849;48.758;9.158;2022-09-09T15:06:18;1.20;;;0.77;;
2211;SDS011;48849;48.758;9.158;2022-09-09T15:08:49;1.30;;;0.53;;
2211;SDS011;48849;48.758;9.158;2022-09-09T15:11:17;1.90;;;0.70;;
2211;SDS011;48849;48.758;9.158;2022-09-09T15:13:45;2.40;;;0.90;;
2211;SDS011;48849;48.758;9.158;2022-09-09T15:16:14;2.23;;;0.73;;
2211;SDS011;48849;48.758;9.158;2022-09-09T15:18:41;3.17;;;0.67;;
2211;SDS011;48849;48.758;9.158;2022-09-09T15:21:10;3.03;;;0.97;;
2211;SDS011;48849;48.758;9.158;2022-09-09T15:23:37;1.70;;;1.00;;
2211;SDS011;48849;48.758;9.158;2022-09-09T15:26:04;3.40;;;0.80;;